createdAt,value
2023-11-30T00:00:27.141Z,97153.89
2023-11-30T00:03:49.287Z,97150.38
2023-11-30T00:06:51.195Z,97152.10
2023-11-30T00:09:53.059Z,97146.95
2023-11-30T00:12:54.933Z,97148.95
2023-11-30T00:15:56.826Z,97146.22
2023-11-30T00:18:58.711Z,97145.33
2023-11-30T00:22:00.692Z,97142.79
2023-11-30T00:25:02.663Z,97141.52
2023-11-30T00:28:04.756Z,97138.86
2023-11-30T00:31:06.603Z,97140.67
2023-11-30T00:34:08.565Z,97137.16
2023-11-30T00:37:11.806Z,97143.44
2023-11-30T00:40:13.828Z,97142.62
2023-11-30T00:43:15.830Z,97142.27
2023-11-30T00:46:17.850Z,97145.54
2023-11-30T00:49:19.719Z,97140.07
2023-11-30T00:52:21.728Z,97138.98
2023-11-30T00:55:23.642Z,97136.27
2023-11-30T00:58:25.640Z,97135.38
2023-11-30T01:01:27.574Z,97138.52
2023-11-30T01:04:29.577Z,97142.87
2023-11-30T01:07:31.432Z,97144.67
2023-11-30T01:10:33.468Z,97143.41
2023-11-30T01:13:35.603Z,97145.08
2023-11-30T01:16:37.498Z,97142.13
2023-11-30T01:19:39.347Z,97142.89
2023-11-30T01:22:41.162Z,97134.16
2023-11-30T01:25:42.851Z,97140.70
2023-11-30T01:28:44.650Z,97142.48
2023-11-30T01:31:46.454Z,97145.76
2023-11-30T01:34:48.510Z,97142.23
2023-11-30T01:37:50.262Z,97141.68
2023-11-30T01:40:51.972Z,97148.02
2023-11-30T01:43:53.685Z,97144.02
2023-11-30T01:46:55.508Z,97141.48
2023-11-30T01:49:57.552Z,97139.58
2023-11-30T01:52:59.306Z,97141.02
2023-11-30T01:56:01.142Z,97142.40
2023-11-30T01:59:03.372Z,97134.98
2023-11-30T02:02:05.377Z,97132.30
2023-11-30T02:05:07.415Z,97127.51
2023-11-30T02:08:09.184Z,97124.59
2023-11-30T02:11:11.124Z,97118.33
2023-11-30T02:14:12.874Z,97120.05
2023-11-30T02:17:14.578Z,97116.38
2023-11-30T02:20:17.005Z,97114.34
2023-11-30T02:23:18.705Z,97111.23
2023-11-30T02:26:20.495Z,97107.71
2023-11-30T02:29:22.224Z,97103.66
2023-11-30T02:32:24.139Z,97103.90
2023-11-30T02:35:25.856Z,97104.86
2023-11-30T02:38:27.538Z,97105.67
2023-11-30T02:41:29.354Z,97106.12
2023-11-30T02:44:31.050Z,97101.34
2023-11-30T02:47:32.797Z,97102.68
2023-11-30T02:50:34.489Z,97101.26
2023-11-30T02:53:36.197Z,97099.04
2023-11-30T02:56:41.423Z,97100.37
2023-11-30T02:59:43.150Z,97100.21
2023-11-30T03:02:45.361Z,97103.46
2023-11-30T03:05:47.204Z,97100.08
2023-11-30T03:08:48.883Z,97097.48
2023-11-30T03:11:50.558Z,97099.20
2023-11-30T03:14:52.377Z,97101.98
2023-11-30T03:17:54.219Z,97100.75
2023-11-30T03:20:56.010Z,97103.79
2023-11-30T03:23:58.097Z,97109.83
2023-11-30T03:26:59.842Z,97106.44
2023-11-30T03:30:02.056Z,97107.80
2023-11-30T03:33:03.944Z,97108.83
2023-11-30T03:36:06.243Z,97104.00
2023-11-30T03:39:07.986Z,97094.66
2023-11-30T03:42:10.840Z,97094.91
2023-11-30T03:45:12.523Z,97093.59
2023-11-30T03:48:14.327Z,97094.13
2023-11-30T03:51:16.135Z,97094.87
2023-11-30T03:54:17.956Z,97093.41
2023-11-30T03:57:19.796Z,97092.35
2023-11-30T04:00:21.591Z,97088.80
2023-11-30T04:03:23.297Z,97087.20
2023-11-30T04:06:25.330Z,97088.46
2023-11-30T04:09:27.054Z,97084.53
2023-11-30T04:12:29.514Z,97077.88
2023-11-30T04:15:31.231Z,97074.80
2023-11-30T04:18:33.320Z,97078.45
2023-11-30T04:21:35.153Z,97081.54
2023-11-30T04:24:36.950Z,97081.33
2023-11-30T04:27:39.375Z,97074.27
2023-11-30T04:30:41.384Z,97068.27
2023-11-30T04:33:43.169Z,97064.19
2023-11-30T04:36:45.337Z,97060.23
2023-11-30T04:39:48.268Z,97057.45
2023-11-30T04:42:50.323Z,97061.49
2023-11-30T04:45:52.025Z,97053.26
2023-11-30T04:48:54.935Z,97052.23
2023-11-30T04:51:56.642Z,97046.23
2023-11-30T04:54:58.381Z,97045.04
2023-11-30T04:58:00.102Z,97041.84
2023-11-30T05:01:01.813Z,97045.15
2023-11-30T05:04:04.221Z,97046.89
2023-11-30T05:07:06.068Z,97041.98
2023-11-30T05:10:07.943Z,97034.69
2023-11-30T05:13:09.670Z,97039.19
2023-11-30T05:16:11.501Z,97040.63
2023-11-30T05:19:13.178Z,97037.39
2023-11-30T05:22:14.835Z,97041.88
2023-11-30T05:25:16.493Z,97043.90
2023-11-30T05:28:18.165Z,97043.89
2023-11-30T05:31:19.879Z,97041.34
2023-11-30T05:34:21.560Z,97041.13
2023-11-30T05:37:23.233Z,97038.90
2023-11-30T05:40:25.297Z,97043.65
2023-11-30T05:43:27.002Z,97038.19
2023-11-30T05:46:28.727Z,97036.42
2023-11-30T05:49:30.515Z,97038.06
2023-11-30T05:52:32.251Z,97036.62
2023-11-30T05:55:34.000Z,97039.59
2023-11-30T05:58:36.536Z,97038.84
2023-11-30T06:01:38.574Z,97044.02
2023-11-30T06:04:52.609Z,97043.45
2023-11-30T06:07:54.428Z,97046.57
2023-11-30T06:10:56.084Z,97050.29
2023-11-30T06:13:57.967Z,97054.73
2023-11-30T06:16:59.670Z,97055.60
2023-11-30T06:20:03.921Z,97059.65
2023-11-30T06:23:07.786Z,97060.39
2023-11-30T06:26:09.531Z,97058.49
2023-11-30T06:29:16.339Z,97063.69
2023-11-30T06:32:18.053Z,97070.67
2023-11-30T06:35:20.531Z,97073.48
2023-11-30T06:38:22.241Z,97082.79
2023-11-30T06:41:23.992Z,97093.58
2023-11-30T06:44:26.414Z,97090.22
2023-11-30T06:47:28.159Z,97095.54
2023-11-30T06:50:29.845Z,97101.40
2023-11-30T06:53:31.530Z,97100.75
2023-11-30T06:56:33.396Z,97102.84
2023-11-30T06:59:35.233Z,97100.89
2023-11-30T07:02:37.228Z,97106.19
2023-11-30T07:05:38.906Z,97111.48
2023-11-30T07:08:40.722Z,97112.35
2023-11-30T07:11:43.100Z,97110.05
2023-11-30T07:14:50.959Z,97111.21
2023-11-30T07:17:53.605Z,97112.41
2023-11-30T07:20:57.357Z,97111.30
2023-11-30T07:24:00.242Z,97111.98
2023-11-30T07:27:02.043Z,97116.19
2023-11-30T07:30:08.321Z,97117.60
2023-11-30T07:33:10.351Z,97118.27
2023-11-30T07:36:14.085Z,97119.94
2023-11-30T07:39:16.121Z,97120.42
2023-11-30T07:42:28.862Z,97127.45
2023-11-30T07:45:34.931Z,97128.02
2023-11-30T07:48:37.017Z,97133.52
2023-11-30T07:51:38.752Z,97135.77
2023-11-30T07:54:41.209Z,97131.98
2023-11-30T07:57:43.079Z,97132.15
2023-11-30T08:00:44.837Z,97124.37
2023-11-30T08:03:47.638Z,97119.61
2023-11-30T08:06:49.824Z,97115.83
2023-11-30T08:09:56.326Z,97115.32
2023-11-30T08:13:05.392Z,97111.82
2023-11-30T08:16:09.878Z,97106.58
2023-11-30T08:19:14.566Z,97106.55
2023-11-30T08:22:16.475Z,97106.22
2023-11-30T08:25:18.252Z,97102.51
2023-11-30T08:28:20.918Z,97103.13
2023-11-30T08:31:22.713Z,97099.55
2023-11-30T08:34:24.521Z,97098.33
2023-11-30T08:37:26.323Z,97107.92
2023-11-30T08:40:28.236Z,97110.41
2023-11-30T08:43:30.452Z,97106.45
2023-11-30T08:46:32.151Z,97107.06
2023-11-30T08:49:33.918Z,97101.39
2023-11-30T08:52:36.004Z,97100.51
2023-11-30T08:55:37.670Z,97096.38
2023-11-30T08:58:39.441Z,97098.48
2023-11-30T09:01:41.281Z,97098.04
2023-11-30T09:04:43.192Z,97100.59
2023-11-30T09:07:45.048Z,97102.74
2023-11-30T09:10:47.638Z,97098.49
2023-11-30T09:13:49.444Z,97096.29
2023-11-30T09:16:51.247Z,97099.48
2023-11-30T09:19:53.084Z,97100.82
2023-11-30T09:22:54.883Z,97097.39
2023-11-30T09:25:57.181Z,97092.38
2023-11-30T09:28:59.126Z,97083.88
2023-11-30T09:32:01.099Z,97085.65
2023-11-30T09:35:04.477Z,97084.86
2023-11-30T09:38:06.194Z,97084.67
2023-11-30T09:41:14.125Z,97075.84
2023-11-30T09:44:16.098Z,97068.09
2023-11-30T09:47:18.297Z,97074.34
2023-11-30T09:50:20.273Z,97072.30
2023-11-30T09:53:22.163Z,97063.90
2023-11-30T09:56:28.932Z,97055.29
2023-11-30T09:59:31.136Z,97048.21
2023-11-30T10:02:33.058Z,97049.34
2023-11-30T10:05:34.998Z,97045.83
2023-11-30T10:08:36.766Z,97041.19
2023-11-30T10:11:39.120Z,97033.39
2023-11-30T10:14:40.913Z,97031.70
2023-11-30T10:17:47.084Z,97024.52
2023-11-30T10:20:49.903Z,97015.77
2023-11-30T10:23:52.200Z,97014.54
2023-11-30T10:26:59.748Z,97013.11
2023-11-30T10:30:04.825Z,97012.95
2023-11-30T10:33:13.667Z,97012.84
2023-11-30T10:36:18.971Z,97009.96
2023-11-30T10:39:24.208Z,97001.88
2023-11-30T10:42:27.607Z,96992.66
2023-11-30T10:45:36.466Z,96993.82
2023-11-30T10:48:39.665Z,96990.38
2023-11-30T10:51:42.610Z,96990.95
2023-11-30T10:54:55.297Z,96993.23
2023-11-30T10:57:58.565Z,96990.58
2023-11-30T11:01:01.077Z,96996.73
2023-11-30T11:04:07.549Z,96992.70
2023-11-30T11:07:15.618Z,96984.84
2023-11-30T11:10:32.173Z,96983.06
2023-11-30T11:13:35.327Z,96980.41
2023-11-30T11:16:44.813Z,96977.46
2023-11-30T11:19:47.270Z,96975.05
2023-11-30T11:23:13.826Z,96973.72
2023-11-30T11:26:16.103Z,96967.64
2023-11-30T11:29:24.335Z,96969.59
2023-11-30T11:32:35.167Z,96963.52
2023-11-30T11:35:37.197Z,96969.98
2023-11-30T11:38:39.129Z,96969.27
2023-11-30T11:41:41.058Z,96966.02
2023-11-30T11:44:42.870Z,96962.50
2023-11-30T11:47:44.997Z,96961.34
2023-11-30T11:50:56.951Z,96956.52
2023-11-30T11:53:59.006Z,96955.73
2023-11-30T11:57:02.201Z,96949.74
2023-11-30T12:00:10.574Z,96946.48
2023-11-30T12:03:12.630Z,96937.61
2023-11-30T12:06:14.954Z,96935.73
2023-11-30T12:09:16.832Z,96933.09
2023-11-30T12:12:18.649Z,96930.59
2023-11-30T12:15:20.447Z,96932.39
2023-11-30T12:18:22.498Z,96930.84
2023-11-30T12:21:25.064Z,96928.50
2023-11-30T12:24:26.887Z,96921.18
2023-11-30T12:27:29.662Z,96917.11
2023-11-30T12:30:31.868Z,96917.98
2023-11-30T12:33:33.731Z,96921.14
2023-11-30T12:36:35.652Z,96914.61
2023-11-30T12:39:38.017Z,96908.36
2023-11-30T12:42:42.307Z,96902.15
2023-11-30T12:45:44.402Z,96901.27
2023-11-30T12:48:46.568Z,96902.44
2023-11-30T12:51:49.391Z,96900.16
2023-11-30T12:54:52.342Z,96898.36
2023-11-30T12:57:54.328Z,96892.90
2023-11-30T13:00:56.226Z,96887.21
2023-11-30T13:03:59.288Z,96886.80
2023-11-30T13:07:01.300Z,96890.88
2023-11-30T13:10:03.285Z,96881.29
2023-11-30T13:13:06.148Z,96884.08
2023-11-30T13:16:08.408Z,96879.84
2023-11-30T13:19:10.391Z,96886.64
2023-11-30T13:22:12.233Z,96882.30
2023-11-30T13:25:14.699Z,96877.99
2023-11-30T13:28:16.795Z,96887.97
2023-11-30T13:31:18.801Z,96889.25
2023-11-30T13:34:20.556Z,96894.10
2023-11-30T13:37:22.616Z,96896.85
2023-11-30T13:40:25.467Z,96893.80
2023-11-30T13:43:27.329Z,96888.62
2023-11-30T13:46:29.087Z,96885.56
2023-11-30T13:49:31.173Z,96891.88
2023-11-30T13:52:32.961Z,96893.55
2023-11-30T13:55:34.784Z,96895.21
2023-11-30T13:58:36.594Z,96901.74
2023-11-30T14:01:38.752Z,96905.41
2023-11-30T14:04:40.626Z,96906.44
2023-11-30T14:07:43.033Z,96909.18
2023-11-30T14:10:44.873Z,96907.79
2023-11-30T14:13:46.602Z,96905.89
2023-11-30T14:16:48.987Z,96909.80
2023-11-30T14:19:51.451Z,96915.44
2023-11-30T14:22:53.941Z,96912.29
2023-11-30T14:25:57.175Z,96905.98
2023-11-30T14:28:58.877Z,96903.49
2023-11-30T14:32:06.937Z,96905.16
2023-11-30T14:35:10.257Z,96909.43
2023-11-30T14:38:12.658Z,96909.55
2023-11-30T14:41:16.796Z,96906.54
2023-11-30T14:44:18.759Z,96904.92
2023-11-30T14:47:25.925Z,96906.14
2023-11-30T14:50:27.728Z,96907.45
2023-11-30T14:53:29.937Z,96908.52
2023-11-30T14:56:32.078Z,96903.42
2023-11-30T14:59:33.981Z,96895.50
2023-11-30T15:02:35.880Z,96894.95
2023-11-30T15:05:38.112Z,96895.13
2023-11-30T15:08:39.730Z,96897.09
2023-11-30T15:11:43.715Z,96901.91
2023-11-30T15:14:45.559Z,96894.13
2023-11-30T15:17:49.930Z,96896.34
2023-11-30T15:20:51.697Z,96898.09
2023-11-30T15:23:53.516Z,96890.02
2023-11-30T15:26:56.624Z,96894.39
2023-11-30T15:29:59.726Z,96895.24
2023-11-30T15:33:01.465Z,96894.38
2023-11-30T15:36:05.530Z,96893.88
2023-11-30T15:39:16.194Z,96888.43
2023-11-30T15:42:17.961Z,96896.84
2023-11-30T15:45:23.604Z,96895.88
2023-11-30T15:48:25.562Z,96880.94
2023-11-30T15:51:27.318Z,96884.40
2023-11-30T15:54:28.953Z,96882.98
2023-11-30T15:57:30.702Z,96890.61
2023-11-30T16:00:33.161Z,96891.32
2023-11-30T16:03:35.004Z,96884.47
2023-11-30T16:06:37.056Z,96883.84
2023-11-30T16:09:38.888Z,96882.32
2023-11-30T16:12:40.626Z,96882.35
2023-11-30T16:15:42.440Z,96870.20
2023-11-30T16:18:44.397Z,96873.98
2023-11-30T16:21:46.290Z,96871.41
2023-11-30T16:24:48.179Z,96867.63
2023-11-30T16:27:49.987Z,96870.16
2023-11-30T16:30:51.720Z,96871.39
2023-11-30T16:33:53.847Z,96862.72
2023-11-30T16:36:56.153Z,96857.60
2023-11-30T16:39:58.170Z,96851.38
2023-11-30T16:43:00.527Z,96843.94
2023-11-30T16:46:03.172Z,96831.23
2023-11-30T16:49:05.581Z,96828.27
2023-11-30T16:52:08.570Z,96826.00
2023-11-30T16:55:12.723Z,96831.73
2023-11-30T16:58:14.556Z,96839.90
2023-11-30T17:01:46.185Z,96838.65
2023-11-30T17:04:48.027Z,96831.92
2023-11-30T17:07:50.073Z,96831.86
2023-11-30T17:10:53.039Z,96837.73
2023-11-30T17:13:54.856Z,96838.80
2023-11-30T17:16:56.807Z,96843.46
2023-11-30T17:19:58.994Z,96842.69
2023-11-30T17:23:00.790Z,96833.14
2023-11-30T17:26:02.964Z,96834.84
2023-11-30T17:29:04.669Z,96837.15
2023-11-30T17:32:07.351Z,96838.13
2023-11-30T17:35:09.665Z,96831.52
2023-11-30T17:38:11.431Z,96830.66
2023-11-30T17:41:13.356Z,96830.67
2023-11-30T17:44:15.171Z,96824.67
2023-11-30T17:47:17.012Z,96818.67
2023-11-30T17:50:18.962Z,96813.75
2023-11-30T17:53:20.877Z,96814.25
2023-11-30T17:56:22.737Z,96820.16
2023-11-30T17:59:27.254Z,96822.00
2023-11-30T18:02:29.150Z,96823.21
2023-11-30T18:05:30.980Z,96822.60
2023-11-30T18:08:33.281Z,96821.58
2023-11-30T18:11:35.614Z,96824.14
2023-11-30T18:14:38.273Z,96817.56
2023-11-30T18:17:40.260Z,96814.31
2023-11-30T18:20:41.964Z,96797.92
2023-11-30T18:23:44.414Z,96791.90
2023-11-30T18:26:48.368Z,96794.31
2023-11-30T18:29:50.238Z,96790.77
2023-11-30T18:32:52.014Z,96789.98
2023-11-30T18:35:53.661Z,96783.15
2023-11-30T18:38:55.442Z,96772.39
2023-11-30T18:41:57.249Z,96757.23
2023-11-30T18:44:58.978Z,96743.61
2023-11-30T18:48:00.822Z,96745.29
2023-11-30T18:51:03.113Z,96752.82
2023-11-30T18:54:04.994Z,96757.57
2023-11-30T18:57:07.076Z,96766.09
2023-11-30T19:00:09.878Z,96768.45
2023-11-30T19:03:11.740Z,96790.96
2023-11-30T19:06:15.919Z,96819.37
2023-11-30T19:09:18.223Z,96815.19
2023-11-30T19:12:19.920Z,96813.30
2023-11-30T19:15:25.168Z,96807.99
2023-11-30T19:18:30.549Z,96807.58
2023-11-30T19:21:32.556Z,96807.61
2023-11-30T19:24:34.517Z,96815.77
2023-11-30T19:27:36.339Z,96807.64
2023-11-30T19:30:38.169Z,96793.09
2023-11-30T19:33:40.275Z,96784.35
2023-11-30T19:36:42.437Z,96777.90
2023-11-30T19:39:44.326Z,96788.67
2023-11-30T19:42:46.184Z,96785.87
2023-11-30T19:45:47.994Z,96777.46
2023-11-30T19:48:49.917Z,96772.99
2023-11-30T19:51:52.501Z,96773.91
2023-11-30T19:54:54.395Z,96771.81
2023-11-30T19:57:56.176Z,96762.67
2023-11-30T20:00:57.954Z,96755.15
2023-11-30T20:03:59.964Z,96755.72
2023-11-30T20:07:01.872Z,96751.23
2023-11-30T20:10:04.121Z,96742.20
2023-11-30T20:13:05.824Z,96742.58
2023-11-30T20:16:11.169Z,96750.31
2023-11-30T20:19:12.927Z,96751.89
2023-11-30T20:22:14.814Z,96759.08
2023-11-30T20:25:17.381Z,96762.85
2023-11-30T20:28:19.387Z,96766.55
2023-11-30T20:31:21.163Z,96763.33
2023-11-30T20:34:23.239Z,96759.84
2023-11-30T20:37:25.432Z,96768.79
2023-11-30T20:40:26.990Z,96780.70
2023-11-30T20:43:29.172Z,96780.38
2023-11-30T20:46:30.772Z,96757.34
2023-11-30T20:49:32.517Z,96763.05
2023-11-30T20:52:34.714Z,96763.38
2023-11-30T20:55:36.750Z,96769.80
2023-11-30T20:58:39.460Z,96775.05
2023-11-30T21:01:41.633Z,96766.70
2023-11-30T21:04:43.515Z,96780.61
2023-11-30T21:07:45.604Z,96783.73
2023-11-30T21:10:47.440Z,96784.54
2023-11-30T21:13:49.152Z,96775.04
2023-11-30T21:16:51.257Z,96764.78
2023-11-30T21:19:52.878Z,96768.41
2023-11-30T21:22:57.460Z,96767.15
2023-11-30T21:26:09.994Z,96772.50
2023-11-30T21:29:12.553Z,96767.23
2023-11-30T21:32:14.714Z,96761.55
2023-11-30T21:35:16.611Z,96771.30
2023-11-30T21:38:18.570Z,96762.72
2023-11-30T21:41:20.929Z,96753.98
2023-11-30T21:44:22.776Z,96759.41
2023-11-30T21:47:24.502Z,96763.80
2023-11-30T21:50:27.159Z,96771.38
2023-11-30T21:53:32.624Z,96771.07
2023-11-30T21:56:34.425Z,96781.35
2023-11-30T21:59:37.258Z,96774.08
2023-11-30T22:02:40.621Z,96780.27
2023-11-30T22:05:42.728Z,96782.72
2023-11-30T22:08:45.912Z,96771.70
2023-11-30T22:11:47.574Z,96772.00
2023-11-30T22:14:49.275Z,96780.28
2023-11-30T22:17:51.116Z,96789.64
2023-11-30T22:20:53.137Z,96787.01
2023-11-30T22:23:55.472Z,96785.70
2023-11-30T22:26:57.223Z,96800.56
2023-11-30T22:29:58.898Z,96800.80
2023-11-30T22:33:00.653Z,96809.07
2023-11-30T22:36:02.410Z,96807.37
2023-11-30T22:39:04.159Z,96801.41
2023-11-30T22:42:06.440Z,96794.79
2023-11-30T22:45:08.243Z,96784.91
2023-11-30T22:48:10.054Z,96784.53
2023-11-30T22:51:12.834Z,96768.15
2023-11-30T22:54:14.802Z,96764.29
2023-11-30T22:57:17.306Z,96751.17
2023-11-30T23:00:24.162Z,96763.77
2023-11-30T23:03:26.159Z,96778.55
2023-11-30T23:06:28.146Z,96760.64
2023-11-30T23:09:29.981Z,96745.56
2023-11-30T23:12:31.856Z,96748.50
2023-11-30T23:15:33.606Z,96765.38
2023-11-30T23:18:35.582Z,96769.63
2023-11-30T23:21:37.532Z,96770.69
2023-11-30T23:24:42.211Z,96767.82
2023-11-30T23:27:44.015Z,96763.58
2023-11-30T23:30:45.745Z,96755.94
2023-11-30T23:33:47.669Z,96763.80
2023-11-30T23:36:49.390Z,96772.92
2023-11-30T23:39:51.401Z,96769.52
2023-11-30T23:42:53.487Z,96771.91
2023-11-30T23:45:55.196Z,96764.95
2023-11-30T23:48:57.755Z,96757.75
2023-11-30T23:51:59.411Z,96763.38
2023-11-30T23:55:01.756Z,96767.86
2023-11-30T23:58:03.642Z,96764.35
